Time;durP1;ratioP1;P1;durP2;ratioP2;P2;SDS_P1;SDS_P2;PMS_P1;PMS_P2;Temp;Humidity;BMP_temperature;BMP_pressure;BME280_temperature;BME280_humidity;BME280_pressure;Samples;Min_cycle;Max_cycle;Signal;HPM_P1;HPM_P2
2022/04/02 00:00:18;;;;;;;7.13;1.38;;;;;;;0.83;100.00;97452.78;10342543;28;20143;-57
2022/04/02 00:05:21;;;;;;;4.95;1.20;;;;;;;0.77;100.00;97450.59;10341751;28;20582;-58
2022/04/02 00:10:24;;;;;;;5.38;1.10;;;;;;;0.72;100.00;97442.19;10343865;28;20049;-57
2022/04/02 00:15:29;;;;;;;6.38;1.20;;;;;;;0.73;100.00;97441.22;10342615;28;20046;-61
2022/04/02 00:20:32;;;;;;;4.95;1.40;;;;;;;0.65;100.00;97438.38;10343292;28;20045;-57
2022/04/02 00:25:35;;;;;;;6.53;1.02;;;;;;;0.65;100.00;97439.19;10342130;28;20052;-58
2022/04/02 00:30:40;;;;;;;4.72;1.40;;;;;;;0.66;100.00;97445.31;10343299;28;20244;-57
2022/04/02 00:35:43;;;;;;;5.45;1.10;;;;;;;0.59;100.00;97445.81;10342871;28;20037;-58
2022/04/02 00:40:49;;;;;;;4.07;1.20;;;;;;;0.59;100.00;97460.88;10344191;28;20091;-57
2022/04/02 00:45:55;;;;;;;4.32;1.20;;;;;;;0.49;100.00;97460.78;10374964;28;20042;-61
2022/04/02 00:51:08;;;;;;;4.65;1.20;;;;;;;0.48;100.00;97458.22;10384414;28;20072;-60
2022/04/02 00:56:14;;;;;;;3.15;1.02;;;;;;;0.39;100.00;97462.47;10367549;28;20455;-60
2022/04/02 01:01:19;;;;;;;5.47;1.10;;;;;;;0.39;100.00;97475.72;10338962;28;20061;-60
2022/04/02 01:06:24;;;;;;;7.32;1.20;;;;;;;0.37;100.00;97467.03;10339750;28;20529;-58
2022/04/02 01:11:37;;;;;;;5.35;1.15;;;;;;;0.33;100.00;97470.88;10320325;28;20066;-60
2022/04/02 01:16:42;;;;;;;3.53;1.00;;;;;;;0.28;100.00;97474.75;10339135;28;20046;-58
2022/04/02 01:21:55;;;;;;;4.93;1.10;;;;;;;0.27;100.00;97478.38;10322178;28;20116;-60
2022/04/02 01:27:09;;;;;;;2.20;0.95;;;;;;;0.22;100.00;97477.03;10322341;28;20042;-59
2022/04/02 01:32:14;;;;;;;2.70;1.05;;;;;;;0.11;100.00;97480.50;10338086;28;20089;-56
2022/04/02 01:37:25;;;;;;;1.88;1.02;;;;;;;0.08;100.00;97486.03;10340493;28;20053;-59
2022/04/02 01:42:34;;;;;;;4.17;1.20;;;;;;;-0.02;100.00;97488.56;10334815;28;20057;-59
2022/04/02 01:47:43;;;;;;;3.65;1.00;;;;;;;-0.01;100.00;97475.22;10339505;28;20168;-56
2022/04/02 01:52:47;;;;;;;3.40;1.50;;;;;;;-0.10;100.00;97491.81;10337925;28;20105;-54
2022/04/02 01:57:53;;;;;;;2.08;1.05;;;;;;;-0.21;100.00;97491.78;10342645;28;20136;-58
2022/04/02 02:03:07;;;;;;;3.75;1.20;;;;;;;-0.35;100.00;97493.66;10327753;28;20057;-56
2022/04/02 02:08:12;;;;;;;2.60;1.13;;;;;;;-0.38;100.00;97499.19;10347118;28;20761;-53
2022/04/02 02:13:25;;;;;;;5.18;1.30;;;;;;;-0.42;100.00;97508.31;10342653;28;20053;-54
2022/04/02 02:18:29;;;;;;;1.80;1.20;;;;;;;-0.51;100.00;97509.00;10327134;28;20245;-56
2022/04/02 02:23:34;;;;;;;2.05;1.30;;;;;;;-0.57;100.00;97512.09;10345602;28;20124;-54
2022/04/02 02:28:37;;;;;;;3.20;1.30;;;;;;;-0.63;100.00;97516.88;10332392;28;21062;-55
2022/04/02 02:39:05;;;;;;;3.35;1.30;;;;;;;-0.77;100.00;97519.72;10327379;28;20054;-56
2022/04/02 02:44:14;;;;;;;2.45;1.20;;;;;;;-0.80;100.00;97519.94;10323812;28;20045;-57
2022/04/02 02:49:24;;;;;;;2.63;1.30;;;;;;;-0.80;100.00;97522.56;10326905;28;20054;-53
2022/04/02 02:54:32;;;;;;;4.40;1.15;;;;;;;-0.87;100.00;97523.97;10335120;28;20136;-58
2022/04/02 02:59:37;;;;;;;2.60;1.25;;;;;;;-0.90;100.00;97522.41;10343022;28;20415;-55
2022/04/02 03:04:41;;;;;;;4.15;1.30;;;;;;;-0.91;100.00;97522.50;10326884;28;20627;-56
2022/04/02 03:09:53;;;;;;;1.67;1.05;;;;;;;-0.98;100.00;97524.75;10326861;28;20046;-55
2022/04/02 03:14:59;;;;;;;1.65;1.10;;;;;;;-1.01;100.00;97520.53;10340740;28;20068;-55
2022/04/02 03:20:04;;;;;;;1.80;1.15;;;;;;;-1.04;100.00;97526.03;10342390;28;20060;-54
2022/04/02 03:25:11;;;;;;;1.33;1.00;;;;;;;-1.07;100.00;97522.78;10341740;28;20053;-53
2022/04/02 03:30:16;;;;;;;1.27;1.00;;;;;;;-1.19;100.00;97527.13;10343439;28;20045;-54
2022/04/02 03:35:22;;;;;;;2.75;1.10;;;;;;;-1.13;100.00;97538.13;10322288;28;20057;-54
2022/04/02 03:40:29;;;;;;;2.78;1.40;;;;;;;-1.11;100.00;97533.56;10341992;28;20054;-52
2022/04/02 03:45:33;;;;;;;4.28;1.10;;;;;;;-1.14;100.00;97539.06;10341885;28;20662;-53
2022/04/02 03:50:37;;;;;;;3.30;1.30;;;;;;;-1.31;100.00;97548.19;10323077;28;20205;-54
2022/04/02 03:55:42;;;;;;;1.73;1.15;;;;;;;-1.31;100.00;97552.66;10339585;28;20050;-53
2022/04/02 04:00:57;;;;;;;1.77;1.10;;;;;;;-1.37;100.00;97568.91;10318098;28;20046;-53
2022/04/02 04:06:01;;;;;;;2.28;1.20;;;;;;;-1.43;100.00;97568.41;10327116;28;20415;-55
2022/04/02 04:11:07;;;;;;;1.70;1.08;;;;;;;-1.44;100.00;97573.78;10328754;28;20518;-55
2022/04/02 04:16:13;;;;;;;2.17;1.20;;;;;;;-1.47;100.00;97585.41;10342861;28;20045;-57
2022/04/02 04:21:16;;;;;;;1.30;1.00;;;;;;;-1.48;100.00;97575.81;10326001;28;20538;-56
2022/04/02 04:26:25;;;;;;;2.58;1.13;;;;;;;-1.57;100.00;97590.47;10328552;28;20045;-56
2022/04/02 04:31:28;;;;;;;2.10;1.20;;;;;;;-1.58;100.00;97596.72;10340379;28;20799;-57
2022/04/02 04:36:31;;;;;;;1.92;1.25;;;;;;;-1.61;100.00;97596.94;10340539;28;20522;-54
2022/04/02 04:41:38;;;;;;;1.77;1.30;;;;;;;-1.64;100.00;97605.06;10342523;28;20053;-55
2022/04/02 04:46:43;;;;;;;2.35;1.40;;;;;;;-1.65;100.00;97619.22;10343067;28;20046;-56
2022/04/02 04:51:50;;;;;;;1.70;1.30;;;;;;;-1.69;100.00;97623.00;10326571;28;20327;-58
2022/04/02 04:56:55;;;;;;;1.95;1.30;;;;;;;-1.72;100.00;97628.53;10352831;23;20458;-59
2022/04/02 05:02:03;;;;;;;2.28;1.17;;;;;;;-1.69;100.00;97627.47;10321944;28;20489;-56
2022/04/02 05:07:10;;;;;;;1.98;1.20;;;;;;;-1.77;100.00;97631.47;10308855;28;20731;-57
2022/04/02 05:12:18;;;;;;;2.28;1.30;;;;;;;-1.78;100.00;97631.56;10319696;28;20628;-53
2022/04/02 05:17:24;;;;;;;4.10;1.48;;;;;;;-1.79;100.00;97637.78;10300657;28;21275;-58
2022/04/02 05:22:28;;;;;;;2.63;1.20;;;;;;;-1.78;100.00;97643.00;10299230;28;20135;-58
2022/04/02 05:27:33;;;;;;;2.92;1.33;;;;;;;-1.79;100.00;97651.84;10306692;28;20050;-56
2022/04/02 05:32:37;;;;;;;4.25;1.40;;;;;;;-1.79;100.00;97654.50;10306013;28;20601;-58
2022/04/02 05:37:43;;;;;;;2.30;1.38;;;;;;;-1.78;100.00;97661.47;10327125;28;20176;-56
2022/04/02 05:42:48;;;;;;;2.90;1.60;;;;;;;-1.79;100.00;97669.47;10309039;28;20042;-57
2022/04/02 05:47:53;;;;;;;3.13;1.40;;;;;;;-1.71;100.00;97672.47;10309220;28;21030;-55
2022/04/02 05:52:56;;;;;;;2.33;1.25;;;;;;;-1.68;100.00;97682.81;10325125;28;20053;-61
2022/04/02 05:58:01;;;;;;;2.28;1.30;;;;;;;-1.68;100.00;97681.97;10340933;28;20569;-60
2022/04/02 06:03:05;;;;;;;3.22;1.30;;;;;;;-1.60;100.00;97696.38;10369695;28;20545;-59
2022/04/02 06:08:10;;;;;;;2.75;1.40;;;;;;;-1.53;100.00;97702.09;10368448;28;20140;-59
2022/04/02 06:13:14;;;;;;;1.63;1.40;;;;;;;-1.50;100.00;97696.56;10369360;28;20657;-59
2022/04/02 06:18:18;;;;;;;4.13;1.50;;;;;;;-1.46;100.00;97707.78;10345428;28;20049;-59
2022/04/02 06:23:22;;;;;;;2.55;1.42;;;;;;;-1.45;100.00;97710.34;10279798;28;20476;-61
2022/04/02 06:28:27;;;;;;;4.50;1.60;;;;;;;-1.40;100.00;97713.50;10302350;28;20042;-59
2022/04/02 06:33:30;;;;;;;2.75;1.70;;;;;;;-1.38;100.00;97721.34;10280339;28;20058;-61
2022/04/02 06:38:34;;;;;;;2.08;1.50;;;;;;;-1.31;100.00;97719.97;10284163;28;20050;-57
2022/04/02 06:43:38;;;;;;;2.78;1.55;;;;;;;-1.30;100.00;97723.47;10283057;28;20496;-59
2022/04/02 06:48:45;;;;;;;1.88;1.40;;;;;;;-1.20;100.00;97735.09;10299958;28;21017;-59
2022/04/02 06:53:49;;;;;;;4.43;1.92;;;;;;;-1.19;100.00;97736.78;10297762;28;20058;-59
2022/04/02 06:58:53;;;;;;;3.38;2.10;;;;;;;-1.10;100.00;97727.38;10260250;28;20133;-60
2022/04/02 07:03:56;;;;;;;6.25;4.03;;;;;;;-1.04;100.00;97748.09;10242371;28;21090;-58
2022/04/02 07:09:00;;;;;;;3.30;1.92;;;;;;;-0.99;100.00;97753.91;10261652;28;20078;-57
2022/04/02 07:14:04;;;;;;;2.38;1.50;;;;;;;-0.96;100.00;97761.63;10243806;28;20189;-57
2022/04/02 07:19:09;;;;;;;4.38;2.25;;;;;;;-0.88;100.00;97752.34;10260972;28;20427;-56
2022/04/02 07:24:12;;;;;;;2.55;1.90;;;;;;;-0.82;100.00;97765.13;10259634;28;20720;-59
2022/04/02 07:29:17;;;;;;;4.55;2.75;;;;;;;-0.76;100.00;97769.16;10260477;28;20051;-60
2022/04/02 07:34:20;;;;;;;5.53;4.00;;;;;;;-0.65;100.00;97777.19;10259879;28;20063;-67
2022/04/02 07:39:32;;;;;;;10.02;8.85;;;;;;;-0.54;100.00;97779.09;10239392;28;20046;-60
2022/04/02 07:44:47;;;;;;;5.30;4.35;;;;;;;-0.38;100.00;97787.63;10242725;28;20082;-60
2022/04/02 07:49:55;;;;;;;2.95;1.63;;;;;;;-0.34;100.00;97780.31;10258170;28;20070;-58
2022/04/02 07:55:01;;;;;;;3.45;1.50;;;;;;;-0.17;100.00;97797.66;10269207;28;20043;-59
2022/04/02 08:00:10;;;;;;;2.90;1.60;;;;;;;-0.10;100.00;97801.56;10267613;28;20516;-59
2022/04/02 08:05:17;;;;;;;2.05;1.73;;;;;;;0.07;100.00;97812.75;10260210;28;20501;-63
2022/04/02 08:10:23;;;;;;;3.60;1.50;;;;;;;0.26;100.00;97805.19;10258595;28;20078;-61
2022/04/02 08:15:28;;;;;;;2.72;1.63;;;;;;;0.33;100.00;97802.06;10258904;28;20141;-58
2022/04/02 08:20:40;;;;;;;5.03;2.05;;;;;;;0.40;100.00;97792.72;10235757;28;20170;-53
2022/04/02 08:25:51;;;;;;;2.28;1.67;;;;;;;0.40;100.00;97796.22;10241655;28;20054;-58
2022/04/02 08:31:04;;;;;;;2.90;1.70;;;;;;;0.55;100.00;97810.13;10258446;28;20069;-58
2022/04/02 08:36:16;;;;;;;2.03;1.40;;;;;;;0.68;100.00;97809.22;10259256;28;20045;-62
2022/04/02 08:41:56;;;;;;;3.80;3.03;;;;;;;0.98;100.00;97815.84;10256129;28;20151;-64
2022/04/02 08:47:12;;;;;;;2.28;1.40;;;;;;;1.25;100.00;97818.22;10257712;28;20134;-58
2022/04/02 08:52:21;;;;;;;2.22;1.20;;;;;;;1.42;100.00;97821.38;10257146;28;20533;-56
2022/04/02 08:57:31;;;;;;;2.28;1.33;;;;;;;1.51;100.00;97834.78;10268001;28;20602;-56
2022/04/02 09:03:10;;;;;;;3.15;1.33;;;;;;;1.52;100.00;97830.34;10296330;28;20070;-57
2022/04/02 09:09:05;;;;;;;2.75;1.50;;;;;;;1.60;100.00;97840.34;10306235;28;20129;-58
2022/04/02 09:14:46;;;;;;;2.65;2.00;;;;;;;1.59;100.00;97852.78;10302387;28;20046;-57
2022/04/02 09:20:09;;;;;;;5.30;1.60;;;;;;;1.71;100.00;97843.00;10266169;28;20051;-56
2022/04/02 09:25:42;;;;;;;1.95;1.50;;;;;;;1.64;100.00;97841.78;10296936;28;20139;-56
2022/04/02 09:31:35;;;;;;;4.82;1.40;;;;;;;1.60;100.00;97850.94;10303621;28;20072;-57
2022/04/02 09:36:59;;;;;;;2.30;1.30;;;;;;;1.73;100.00;97858.84;10297623;28;20089;-56
2022/04/02 09:42:30;;;;;;;2.63;1.50;;;;;;;1.70;100.00;97859.94;10302623;28;20051;-59
2022/04/02 09:48:00;;;;;;;2.53;1.40;;;;;;;1.73;100.00;97859.66;10295905;28;20518;-60
2022/04/02 09:53:16;;;;;;;4.47;3.22;;;;;;;1.60;100.00;97861.56;10303511;28;20052;-56
2022/04/02 09:58:53;;;;;;;13.15;11.02;;;;;;;1.73;100.00;97858.84;10303414;28;20137;-58
2022/04/02 10:04:00;;;;;;;3.33;1.40;;;;;;;1.72;100.00;97867.75;10302293;28;20046;-57
2022/04/02 10:09:10;;;;;;;2.92;1.70;;;;;;;1.82;100.00;97868.72;10302893;28;20036;-59
2022/04/02 10:14:20;;;;;;;2.50;1.87;;;;;;;1.91;100.00;97872.50;10300245;28;20054;-60
2022/04/02 10:19:29;;;;;;;4.07;2.75;;;;;;;2.03;100.00;97865.34;10300227;28;21049;-60
2022/04/02 10:24:38;;;;;;;2.35;2.13;;;;;;;1.99;100.00;97870.94;10301768;28;20045;-59
2022/04/02 10:30:04;;;;;;;3.38;2.55;;;;;;;2.08;100.00;97863.19;10302821;28;20038;-58
2022/04/02 10:35:08;;;;;;;4.95;3.85;;;;;;;2.28;100.00;97874.91;10300502;28;20122;-59
2022/04/02 10:40:22;;;;;;;4.57;2.22;;;;;;;2.39;100.00;97868.69;10302851;28;20050;-61
2022/04/02 10:45:29;;;;;;;2.92;1.83;;;;;;;2.60;100.00;97868.78;10290376;28;20058;-57
2022/04/02 10:50:33;;;;;;;4.75;1.30;;;;;;;2.66;100.00;97875.44;10282590;28;20817;-58
2022/04/02 10:55:45;;;;;;;4.30;2.17;;;;;;;2.79;100.00;97881.44;10285954;28;20074;-59
2022/04/02 11:00:48;;;;;;;2.38;1.02;;;;;;;2.83;100.00;97888.19;10270495;28;21274;-60
2022/04/02 11:05:51;;;;;;;3.65;1.75;;;;;;;2.82;100.00;97877.69;10288903;28;20054;-61
2022/04/02 11:10:59;;;;;;;3.00;0.93;;;;;;;2.80;100.00;97882.25;10289967;28;20154;-58
2022/04/02 11:16:03;;;;;;;3.42;1.60;;;;;;;2.93;100.00;97882.97;10269146;28;20090;-58
2022/04/02 11:21:09;;;;;;;4.47;1.50;;;;;;;2.92;100.00;97891.91;10268063;28;20132;-60
2022/04/02 11:26:19;;;;;;;1.58;0.98;;;;;;;2.96;99.66;97880.06;10285701;28;20636;-60
2022/04/02 11:31:28;;;;;;;3.35;1.63;;;;;;;2.96;100.00;97874.72;10287763;28;20050;-60
2022/04/02 11:36:42;;;;;;;1.33;0.90;;;;;;;2.77;100.00;97883.38;10288991;28;20050;-58
2022/04/02 11:41:52;;;;;;;2.03;0.90;;;;;;;2.79;100.00;97900.06;10286494;28;20053;-59
2022/04/02 11:47:00;;;;;;;1.90;0.98;;;;;;;2.84;100.00;97897.84;10286354;28;20046;-61
2022/04/02 11:52:06;;;;;;;2.22;1.00;;;;;;;2.88;100.00;97878.03;10285396;28;20519;-60
2022/04/02 11:57:11;;;;;;;1.35;0.80;;;;;;;2.99;88.72;97885.13;10283631;28;20116;-57
2022/04/02 12:02:34;;;;;;;5.22;2.83;;;;;;;3.22;84.04;97891.19;10285017;28;20723;-59
2022/04/02 12:07:42;;;;;;;3.10;2.00;;;;;;;3.14;98.20;97898.97;10286679;28;20047;-60
2022/04/02 12:13:10;;;;;;;3.05;1.10;;;;;;;2.96;100.00;97885.38;10285633;28;20100;-61
2022/04/02 12:18:15;;;;;;;1.88;1.02;;;;;;;2.88;100.00;97915.25;10285419;28;20050;-59
2022/04/02 12:23:19;;;;;;;2.55;1.00;;;;;;;2.81;100.00;97905.25;10279171;28;20130;-60
2022/04/02 12:28:25;;;;;;;3.45;1.00;;;;;;;2.62;100.00;97912.06;10272751;28;20099;-59
2022/04/02 12:33:29;;;;;;;2.03;1.20;;;;;;;2.63;100.00;97911.09;10282960;28;20043;-59
2022/04/02 12:38:34;;;;;;;2.90;0.90;;;;;;;2.59;100.00;97909.66;10284906;28;20125;-61
2022/04/02 12:43:49;;;;;;;1.80;1.00;;;;;;;2.68;100.00;97919.53;10282981;28;20051;-59
2022/04/02 12:48:53;;;;;;;3.75;1.67;;;;;;;2.73;100.00;97917.38;10285956;28;20038;-62
2022/04/02 12:54:01;;;;;;;1.60;0.93;;;;;;;2.67;100.00;97927.66;10266734;28;20055;-59
2022/04/02 12:59:17;;;;;;;1.70;0.95;;;;;;;2.78;100.00;97935.59;10283113;28;21344;-63
2022/04/02 13:04:25;;;;;;;1.80;0.98;;;;;;;2.72;97.02;97920.13;10266472;28;20050;-65
2022/04/02 13:09:33;;;;;;;1.58;0.88;;;;;;;2.89;94.20;97934.72;10282937;28;20740;-59
2022/04/02 13:14:45;;;;;;;2.08;1.23;;;;;;;3.06;95.51;97936.00;10283106;28;20042;-58
2022/04/02 13:25:22;;;;;;;1.88;1.63;;;;;;;3.00;95.77;97929.38;10284588;28;20057;-61
2022/04/02 13:30:34;;;;;;;2.20;1.08;;;;;;;2.98;92.15;97920.69;10282415;28;20042;-60
2022/04/02 13:35:40;;;;;;;1.35;0.95;;;;;;;3.04;96.10;97928.16;10264794;28;20714;-59
2022/04/02 13:40:46;;;;;;;1.33;0.90;;;;;;;3.26;99.57;97929.03;10283023;28;20073;-56
2022/04/02 13:45:53;;;;;;;1.55;0.95;;;;;;;3.44;97.24;97921.34;10283752;28;20278;-61
2022/04/02 13:51:03;;;;;;;1.77;1.02;;;;;;;3.24;86.61;97933.63;10285917;28;20143;-59
2022/04/02 13:56:13;;;;;;;1.50;1.20;;;;;;;3.24;86.51;97920.34;10286623;28;21013;-59
2022/04/02 14:01:19;;;;;;;3.53;3.08;;;;;;;3.35;87.06;97941.59;10299340;28;20107;-54
2022/04/02 14:06:25;;;;;;;2.75;0.98;;;;;;;3.37;89.43;97933.50;10330741;28;20392;-55
2022/04/02 14:11:35;;;;;;;1.02;0.88;;;;;;;3.33;92.32;97924.91;10315762;28;20591;-54
2022/04/02 14:16:40;;;;;;;1.65;1.00;;;;;;;3.22;90.54;97954.25;10333398;28;20425;-50
2022/04/02 14:21:52;;;;;;;1.33;0.90;;;;;;;3.28;100.00;97937.75;10319817;28;20046;-50
2022/04/02 14:27:10;;;;;;;1.40;0.80;;;;;;;3.06;100.00;97952.84;10331295;28;20057;-53
2022/04/02 14:32:46;;;;;;;1.83;0.90;;;;;;;3.12;100.00;97943.50;10330535;28;20052;-55
2022/04/02 14:38:31;;;;;;;1.92;1.00;;;;;;;3.04;100.00;97948.63;10330658;28;20143;-50
2022/04/02 14:44:07;;;;;;;2.03;1.00;;;;;;;3.05;100.00;97943.16;10312772;28;20054;-55
2022/04/02 14:50:05;;;;;;;1.85;1.00;;;;;;;2.98;99.45;97957.94;10288491;28;20810;-56
2022/04/02 14:55:42;;;;;;;1.40;0.80;;;;;;;2.82;100.00;97966.31;10329388;28;20090;-55
2022/04/02 15:01:30;;;;;;;1.17;0.80;;;;;;;2.68;100.00;97962.09;10327383;28;20101;-56
2022/04/02 15:06:50;;;;;;;2.38;1.05;;;;;;;2.70;100.00;97960.16;10324976;28;20062;-58
2022/04/02 15:11:59;;;;;;;3.20;0.80;;;;;;;2.73;100.00;97967.03;10328172;28;20042;-56
2022/04/02 15:17:20;;;;;;;3.05;0.90;;;;;;;2.72;100.00;97971.53;10311572;28;20057;-55
2022/04/02 15:22:30;;;;;;;1.45;1.00;;;;;;;2.74;100.00;97974.91;10328434;28;20048;-59
2022/04/02 15:34:10;;;;;;;1.38;0.80;;;;;;;2.78;100.00;98002.13;10333906;28;20042;-56
2022/04/02 15:39:23;;;;;;;1.42;0.85;;;;;;;2.85;100.00;97983.84;10325455;28;20049;-55
2022/04/02 15:44:29;;;;;;;4.30;1.00;;;;;;;2.80;100.00;97992.19;10324694;28;20507;-57
2022/04/02 15:49:36;;;;;;;1.42;0.80;;;;;;;2.83;100.00;97993.75;10306414;28;20041;-56
2022/04/02 15:54:41;;;;;;;1.27;0.77;;;;;;;2.62;100.00;98007.81;10321560;28;20105;-56
2022/04/02 16:00:18;;;;;;;3.35;0.80;;;;;;;2.64;100.00;98010.34;10296370;28;20050;-55
2022/04/02 16:05:32;;;;;;;1.60;0.80;;;;;;;2.51;100.00;98008.63;10282624;28;20140;-59
2022/04/02 16:10:36;;;;;;;1.10;0.80;;;;;;;2.52;100.00;98010.34;10283855;28;20053;-57
2022/04/02 16:16:01;;;;;;;2.38;0.93;;;;;;;2.54;100.00;98020.84;10281162;28;20096;-55
2022/04/02 16:21:17;;;;;;;2.35;1.00;;;;;;;2.48;100.00;98024.81;10285147;28;20762;-57
2022/04/02 16:26:20;;;;;;;1.60;0.95;;;;;;;2.45;100.00;98020.59;10281898;28;20112;-59
2022/04/02 16:31:23;;;;;;;1.20;0.85;;;;;;;2.44;100.00;98034.84;10285181;28;21044;-57
2022/04/02 16:36:28;;;;;;;1.33;0.90;;;;;;;2.33;100.00;98042.00;10282820;28;20655;-54
2022/04/02 16:41:37;;;;;;;1.98;1.00;;;;;;;2.30;100.00;98043.06;10285905;28;20087;-53
2022/04/02 16:46:40;;;;;;;1.33;0.85;;;;;;;2.30;100.00;98048.38;10281294;28;20061;-59
2022/04/02 16:51:45;;;;;;;1.67;1.00;;;;;;;2.19;100.00;98058.97;10283287;28;20045;-62
2022/04/02 16:56:48;;;;;;;1.30;1.15;;;;;;;2.15;100.00;98061.88;10288375;28;20602;-62
2022/04/02 17:01:51;;;;;;;1.77;0.88;;;;;;;2.06;100.00;98067.06;10323187;28;20128;-60
2022/04/02 17:07:06;;;;;;;1.52;0.80;;;;;;;1.96;100.00;98072.19;10323987;28;20046;-57
2022/04/02 17:12:12;;;;;;;1.85;0.90;;;;;;;1.98;100.00;98076.47;10345548;23;20068;-60
2022/04/02 17:17:20;;;;;;;2.63;0.90;;;;;;;1.84;100.00;98098.72;10332953;28;20648;-62
2022/04/02 17:22:39;;;;;;;1.65;0.70;;;;;;;1.80;100.00;98091.97;10345253;28;20643;-63
2022/04/02 17:27:44;;;;;;;1.80;1.00;;;;;;;1.75;100.00;98099.41;10352778;28;20642;-63
2022/04/02 17:32:47;;;;;;;3.22;1.10;;;;;;;1.72;100.00;98104.94;10350046;28;20046;-62
2022/04/02 17:37:53;;;;;;;1.85;1.00;;;;;;;1.71;100.00;98113.88;10355334;28;21156;-64
2022/04/02 17:43:01;;;;;;;1.73;1.08;;;;;;;1.66;100.00;98118.69;10351860;28;20041;-61
2022/04/02 17:48:20;;;;;;;2.72;1.00;;;;;;;1.65;100.00;98117.81;10356354;28;20565;-64
2022/04/02 17:53:30;;;;;;;1.50;0.85;;;;;;;1.63;100.00;98134.84;10330612;28;20056;-65
2022/04/02 17:58:39;;;;;;;2.40;1.10;;;;;;;1.54;100.00;98158.44;10352948;28;20126;-63
2022/04/02 18:03:44;;;;;;;2.35;1.80;;;;;;;1.53;100.00;98150.56;10331445;28;20486;-59
2022/04/02 18:08:49;;;;;;;1.45;1.10;;;;;;;1.47;100.00;98159.81;10331296;28;20065;-66
2022/04/02 18:13:54;;;;;;;1.35;0.90;;;;;;;1.46;100.00;98163.47;10331652;28;20124;-59
2022/04/02 18:18:59;;;;;;;2.85;1.80;;;;;;;1.42;100.00;98175.25;10349855;28;20092;-60
2022/04/02 18:24:05;;;;;;;0.98;0.90;;;;;;;1.38;100.00;98189.69;10345601;28;20050;-60
2022/04/02 18:29:10;;;;;;;3.45;1.23;;;;;;;1.41;100.00;98189.47;10351696;28;20136;-61
2022/04/02 18:34:14;;;;;;;1.33;0.90;;;;;;;1.39;100.00;98196.69;10316371;28;20077;-62
2022/04/02 18:39:18;;;;;;;1.48;1.10;;;;;;;1.40;100.00;98210.84;10348678;28;20048;-59
2022/04/02 18:44:22;;;;;;;2.50;2.30;;;;;;;1.38;100.00;98205.63;10349522;28;20077;-60
2022/04/02 18:49:28;;;;;;;1.10;0.85;;;;;;;1.33;100.00;98215.72;10347149;28;20055;-60
2022/04/02 18:54:33;;;;;;;1.33;0.80;;;;;;;1.30;100.00;98218.59;10344676;28;20063;-60
2022/04/02 18:59:36;;;;;;;1.10;1.00;;;;;;;1.27;100.00;98226.75;10349357;28;20045;-57
2022/04/02 19:04:39;;;;;;;2.15;1.00;;;;;;;1.23;100.00;98232.28;10348633;28;20041;-60
2022/04/02 19:09:44;;;;;;;1.70;1.00;;;;;;;1.25;100.00;98247.25;10348586;28;20073;-60
2022/04/02 19:14:47;;;;;;;2.95;1.10;;;;;;;1.17;100.00;98255.75;10347317;28;20053;-59
2022/04/02 19:19:50;;;;;;;1.85;0.93;;;;;;;1.21;100.00;98258.09;10350813;28;20034;-59
2022/04/02 19:24:54;;;;;;;2.50;1.10;;;;;;;1.15;100.00;98263.81;10344529;28;20137;-58
2022/04/02 19:29:58;;;;;;;1.17;1.08;;;;;;;1.13;100.00;98268.38;10343020;28;20047;-57
2022/04/02 19:35:03;;;;;;;1.20;0.90;;;;;;;1.11;100.00;98267.66;10344708;28;20066;-59
2022/04/02 19:40:29;;;;;;;1.60;1.08;;;;;;;1.05;100.00;98271.56;10347293;28;20041;-58
2022/04/02 19:45:33;;;;;;;2.33;1.20;;;;;;;1.01;100.00;98278.03;10347531;28;20049;-60
2022/04/02 19:50:36;;;;;;;1.52;1.08;;;;;;;1.05;100.00;98282.19;10344586;28;20499;-59
2022/04/02 19:55:42;;;;;;;1.80;1.02;;;;;;;1.01;100.00;98293.94;10343939;28;20635;-59
2022/04/02 20:00:45;;;;;;;2.38;1.10;;;;;;;1.01;100.00;98299.25;10339681;28;20053;-57
2022/04/02 20:05:48;;;;;;;2.05;1.05;;;;;;;1.02;100.00;98302.75;10340792;28;20050;-60
2022/04/02 20:10:53;;;;;;;2.05;1.20;;;;;;;1.02;100.00;98305.41;10344405;28;20478;-60
2022/04/02 20:15:58;;;;;;;1.58;1.00;;;;;;;0.99;100.00;98305.63;10327631;28;20582;-61
2022/04/02 20:21:03;;;;;;;1.48;1.10;;;;;;;0.97;100.00;98307.53;10345288;28;20046;-57
2022/04/02 20:26:08;;;;;;;3.38;2.13;;;;;;;0.98;100.00;98319.84;10345592;28;20061;-63
2022/04/02 20:31:13;;;;;;;1.58;0.90;;;;;;;0.94;100.00;98316.56;10338813;28;20080;-61
2022/04/02 20:36:17;;;;;;;1.10;0.95;;;;;;;0.98;100.00;98317.19;10341404;28;20095;-61
2022/04/02 20:41:22;;;;;;;3.50;1.02;;;;;;;0.95;100.00;98320.03;10345993;28;20046;-59
2022/04/02 20:46:26;;;;;;;2.78;1.02;;;;;;;0.97;100.00;98323.44;10339500;28;20058;-63
2022/04/02 20:51:33;;;;;;;2.08;1.02;;;;;;;0.97;100.00;98329.59;10319258;28;20053;-63
2022/04/02 20:56:38;;;;;;;1.27;0.95;;;;;;;1.00;100.00;98331.22;10341546;28;20052;-61
2022/04/02 21:01:43;;;;;;;1.98;1.00;;;;;;;0.98;100.00;98347.19;10350192;28;20038;-62
2022/04/02 21:06:48;;;;;;;1.30;0.88;;;;;;;1.00;100.00;98341.81;10351971;28;20053;-62
2022/04/02 21:11:56;;;;;;;3.58;1.15;;;;;;;0.95;100.00;98351.88;10354408;28;21262;-56
2022/04/02 21:17:00;;;;;;;1.30;0.88;;;;;;;0.96;100.00;98350.91;10353767;28;20046;-56
2022/04/02 21:22:03;;;;;;;1.35;0.82;;;;;;;0.81;100.00;98350.13;10353193;28;20173;-59
2022/04/02 21:27:08;;;;;;;3.00;0.90;;;;;;;0.78;100.00;98356.47;10353010;28;20042;-59
2022/04/02 21:32:11;;;;;;;1.58;1.00;;;;;;;0.69;100.00;98362.38;10352244;28;20041;-57
2022/04/02 21:37:14;;;;;;;2.88;1.00;;;;;;;0.68;100.00;98358.03;10349492;28;20048;-58
2022/04/02 21:42:19;;;;;;;1.38;0.85;;;;;;;0.64;100.00;98362.69;10352349;28;20065;-59
2022/04/02 21:47:22;;;;;;;3.13;0.90;;;;;;;0.57;100.00;98364.06;10351479;28;20128;-57
2022/04/02 21:52:26;;;;;;;1.15;0.80;;;;;;;0.52;100.00;98371.44;10351473;28;20042;-59
2022/04/02 21:57:31;;;;;;;1.20;0.90;;;;;;;0.42;100.00;98366.75;10351584;28;20093;-57
2022/04/02 22:02:34;;;;;;;1.27;1.00;;;;;;;0.39;100.00;98366.94;10353355;28;20057;-57
2022/04/02 22:07:38;;;;;;;3.40;1.08;;;;;;;0.38;100.00;98375.00;10349806;28;20579;-56
2022/04/02 22:12:44;;;;;;;1.33;0.80;;;;;;;0.30;100.00;98384.25;10330812;28;20038;-58
2022/04/02 22:17:47;;;;;;;1.80;0.90;;;;;;;0.25;100.00;98385.50;10315851;28;20043;-58
2022/04/02 22:22:51;;;;;;;1.80;0.90;;;;;;;0.13;100.00;98393.28;10316323;28;20038;-58
2022/04/02 22:27:56;;;;;;;1.45;0.95;;;;;;;0.11;100.00;98404.91;10329534;28;20062;-60
2022/04/02 22:33:00;;;;;;;1.50;0.90;;;;;;;0.10;100.00;98397.91;10315628;28;20037;-59
2022/04/02 22:38:03;;;;;;;1.08;0.98;;;;;;;-0.03;100.00;98398.69;10311043;28;20054;-59
2022/04/02 22:43:07;;;;;;;1.65;0.80;;;;;;;-0.13;100.00;98397.53;10313706;28;20147;-58
2022/04/02 22:48:10;;;;;;;1.05;0.82;;;;;;;-0.13;100.00;98402.00;10313708;28;21325;-59
2022/04/02 22:53:14;;;;;;;1.63;0.88;;;;;;;-0.25;100.00;98404.47;10312260;28;20043;-58
2022/04/02 22:58:18;;;;;;;2.15;0.90;;;;;;;-0.27;100.00;98413.41;10312676;28;20466;-57
2022/04/02 23:03:22;;;;;;;1.50;1.00;;;;;;;-0.32;100.00;98408.41;10312178;28;20133;-59
2022/04/02 23:08:25;;;;;;;3.15;0.95;;;;;;;-0.45;100.00;98418.91;10317722;28;20102;-58
2022/04/02 23:13:30;;;;;;;1.58;1.00;;;;;;;-0.47;100.00;98415.47;10346443;28;20120;-57
2022/04/02 23:18:33;;;;;;;2.03;1.10;;;;;;;-0.54;100.00;98424.75;10347172;28;20046;-56
2022/04/02 23:23:36;;;;;;;3.50;1.10;;;;;;;-0.64;100.00;98425.25;10344083;28;20184;-59
2022/04/02 23:28:41;;;;;;;1.13;0.90;;;;;;;-0.57;100.00;98420.47;10349891;28;20042;-58
2022/04/02 23:33:44;;;;;;;1.25;0.90;;;;;;;-0.66;100.00;98427.19;10346968;28;20095;-57
2022/04/02 23:38:47;;;;;;;1.70;1.00;;;;;;;-0.74;100.00;98429.41;10345577;28;20180;-58
2022/04/02 23:43:52;;;;;;;1.85;1.10;;;;;;;-0.71;100.00;98426.56;10323256;28;20046;-58
2022/04/02 23:48:55;;;;;;;1.92;1.08;;;;;;;-0.77;100.00;98424.31;10349269;28;20045;-56
2022/04/02 23:53:59;;;;;;;1.35;0.95;;;;;;;-0.83;100.00;98429.94;10347858;28;20116;-56
2022/04/02 23:59:03;;;;;;;2.15;1.23;;;;;;;-0.90;100.00;98433.91;10347630;28;20056;-58
